sensor_id;sensor_type;location;lat;lon;timestamp;pressure;altitude;pressure_sealevel;temperature;humidity
9415;BME280;4746;35.664;139.738;2023-06-14T00:02:19;99524.50;;;30.67;58.34
9415;BME280;4746;35.664;139.738;2023-06-14T00:04:46;99520.06;;;30.67;58.49
9415;BME280;4746;35.664;139.738;2023-06-14T00:07:15;99518.69;;;30.73;58.43
9415;BME280;4746;35.664;139.738;2023-06-14T00:09:43;99531.25;;;30.80;58.51
9415;BME280;4746;35.664;139.738;2023-06-14T00:12:11;99534.03;;;30.79;58.54
9415;BME280;4746;35.664;139.738;2023-06-14T00:14:40;99528.75;;;30.79;58.53
9415;BME280;4746;35.664;139.738;2023-06-14T00:17:08;99525.34;;;30.88;58.09
9415;BME280;4746;35.664;139.738;2023-06-14T00:19:36;99531.97;;;30.82;57.81
9415;BME280;4746;35.664;139.738;2023-06-14T00:22:04;99533.47;;;30.75;58.19
9415;BME280;4746;35.664;139.738;2023-06-14T00:24:32;99535.72;;;30.80;57.93
9415;BME280;4746;35.664;139.738;2023-06-14T00:26:59;99538.50;;;30.78;57.70
9415;BME280;4746;35.664;139.738;2023-06-14T00:29:26;99541.94;;;30.69;57.82
9415;BME280;4746;35.664;139.738;2023-06-14T00:31:54;99532.63;;;30.75;57.92
9415;BME280;4746;35.664;139.738;2023-06-14T00:34:22;99534.22;;;30.87;58.25
9415;BME280;4746;35.664;139.738;2023-06-14T00:36:49;99525.72;;;30.83;58.27
9415;BME280;4746;35.664;139.738;2023-06-14T00:39:16;99523.78;;;30.85;58.38
9415;BME280;4746;35.664;139.738;2023-06-14T00:41:44;99524.75;;;30.84;58.06
9415;BME280;4746;35.664;139.738;2023-06-14T00:44:16;99527.41;;;30.84;58.41
9415;BME280;4746;35.664;139.738;2023-06-14T00:46:48;99533.78;;;30.82;58.52
9415;BME280;4746;35.664;139.738;2023-06-14T00:49:16;99526.97;;;30.79;58.33
9415;BME280;4746;35.664;139.738;2023-06-14T00:51:45;99527.50;;;30.83;58.21
9415;BME280;4746;35.664;139.738;2023-06-14T00:54:13;99529.91;;;30.86;58.40
9415;BME280;4746;35.664;139.738;2023-06-14T00:56:40;99519.38;;;30.95;58.14
9415;BME280;4746;35.664;139.738;2023-06-14T00:59:10;99518.16;;;30.99;58.05
9415;BME280;4746;35.664;139.738;2023-06-14T01:01:38;99515.75;;;30.96;57.69
9415;BME280;4746;35.664;139.738;2023-06-14T01:04:06;99508.78;;;30.95;57.66
9415;BME280;4746;35.664;139.738;2023-06-14T01:12:58;99534.84;;;31.39;57.10
9415;BME280;4746;35.664;139.738;2023-06-14T01:15:30;99520.63;;;31.30;57.09
9415;BME280;4746;35.664;139.738;2023-06-14T01:17:58;99521.03;;;31.26;57.16
9415;BME280;4746;35.664;139.738;2023-06-14T01:20:35;99524.81;;;31.33;56.83
9415;BME280;4746;35.664;139.738;2023-06-14T01:23:05;99516.84;;;31.33;56.87
9415;BME280;4746;35.664;139.738;2023-06-14T01:25:33;99508.13;;;31.42;56.97
9415;BME280;4746;35.664;139.738;2023-06-14T01:28:07;99501.19;;;31.60;56.69
9415;BME280;4746;35.664;139.738;2023-06-14T01:30:44;99504.84;;;31.68;56.62
9415;BME280;4746;35.664;139.738;2023-06-14T01:33:15;99509.59;;;31.74;56.59
9415;BME280;4746;35.664;139.738;2023-06-14T01:35:49;99505.13;;;31.93;56.00
9415;BME280;4746;35.664;139.738;2023-06-14T01:38:22;99506.28;;;32.10;55.24
9415;BME280;4746;35.664;139.738;2023-06-14T01:40:52;99515.19;;;32.18;55.08
9415;BME280;4746;35.664;139.738;2023-06-14T01:43:21;99498.41;;;32.27;54.56
9415;BME280;4746;35.664;139.738;2023-06-14T01:45:51;99505.13;;;32.31;54.54
9415;BME280;4746;35.664;139.738;2023-06-14T01:48:21;99513.22;;;32.30;54.63
9415;BME280;4746;35.664;139.738;2023-06-14T01:50:52;99504.84;;;32.34;54.57
9415;BME280;4746;35.664;139.738;2023-06-14T01:53:20;99495.75;;;32.27;54.36
9415;BME280;4746;35.664;139.738;2023-06-14T01:55:47;99504.84;;;32.25;54.87
9415;BME280;4746;35.664;139.738;2023-06-14T01:58:16;99502.75;;;32.28;54.75
9415;BME280;4746;35.664;139.738;2023-06-14T02:00:43;99515.19;;;32.28;54.47
9415;BME280;4746;35.664;139.738;2023-06-14T02:03:12;99500.66;;;32.22;54.32
9415;BME280;4746;35.664;139.738;2023-06-14T02:05:40;99499.69;;;32.23;54.69
9415;BME280;4746;35.664;139.738;2023-06-14T02:08:08;99493.09;;;32.27;54.36
9415;BME280;4746;35.664;139.738;2023-06-14T02:10:38;99496.16;;;32.32;54.21
9415;BME280;4746;35.664;139.738;2023-06-14T02:13:06;99482.91;;;32.32;54.29
9415;BME280;4746;35.664;139.738;2023-06-14T02:15:33;99480.69;;;32.37;54.45
9415;BME280;4746;35.664;139.738;2023-06-14T02:18:06;99469.91;;;32.48;53.94
9415;BME280;4746;35.664;139.738;2023-06-14T02:20:33;99463.75;;;32.57;53.68
9415;BME280;4746;35.664;139.738;2023-06-14T02:23:01;99471.97;;;32.63;53.41
9415;BME280;4746;35.664;139.738;2023-06-14T02:25:29;99457.59;;;32.66;53.08
9415;BME280;4746;35.664;139.738;2023-06-14T02:27:56;99462.59;;;32.69;53.09
9415;BME280;4746;35.664;139.738;2023-06-14T02:30:25;99467.31;;;32.75;52.90
9415;BME280;4746;35.664;139.738;2023-06-14T02:32:53;99460.31;;;32.74;52.60
9415;BME280;4746;35.664;139.738;2023-06-14T02:35:20;99470.13;;;32.73;52.58
9415;BME280;4746;35.664;139.738;2023-06-14T02:37:49;99468.44;;;32.72;52.39
9415;BME280;4746;35.664;139.738;2023-06-14T02:40:18;99468.88;;;32.68;52.59
9415;BME280;4746;35.664;139.738;2023-06-14T02:42:45;99472.50;;;32.67;52.54
9415;BME280;4746;35.664;139.738;2023-06-14T02:45:13;99474.06;;;32.69;52.50
9415;BME280;4746;35.664;139.738;2023-06-14T02:47:41;99477.38;;;32.71;52.10
9415;BME280;4746;35.664;139.738;2023-06-14T02:50:09;99484.53;;;32.71;52.10
9415;BME280;4746;35.664;139.738;2023-06-14T02:52:41;99478.78;;;32.75;51.91
9415;BME280;4746;35.664;139.738;2023-06-14T02:55:29;99485.88;;;32.75;52.10
9415;BME280;4746;35.664;139.738;2023-06-14T02:57:57;99486.44;;;32.78;51.84
9415;BME280;4746;35.664;139.738;2023-06-14T03:00:24;99474.66;;;32.90;51.20
9415;BME280;4746;35.664;139.738;2023-06-14T03:02:52;99486.59;;;33.04;50.83
9415;BME280;4746;35.664;139.738;2023-06-14T03:05:21;99480.63;;;33.02;50.45
9415;BME280;4746;35.664;139.738;2023-06-14T03:07:49;99478.38;;;33.07;49.88
9415;BME280;4746;35.664;139.738;2023-06-14T03:10:17;99474.81;;;33.16;50.17
9415;BME280;4746;35.664;139.738;2023-06-14T03:12:45;99469.22;;;33.18;49.88
9415;BME280;4746;35.664;139.738;2023-06-14T03:15:12;99465.88;;;33.17;49.45
9415;BME280;4746;35.664;139.738;2023-06-14T03:17:40;99468.91;;;33.21;49.56
9415;BME280;4746;35.664;139.738;2023-06-14T03:20:12;99461.88;;;33.30;49.74
9415;BME280;4746;35.664;139.738;2023-06-14T03:22:39;99463.78;;;33.37;49.42
9415;BME280;4746;35.664;139.738;2023-06-14T03:25:08;99457.19;;;33.41;48.87
9415;BME280;4746;35.664;139.738;2023-06-14T03:27:37;99460.84;;;33.40;48.80
9415;BME280;4746;35.664;139.738;2023-06-14T03:30:05;99449.34;;;33.40;48.66
9415;BME280;4746;35.664;139.738;2023-06-14T03:32:33;99456.22;;;33.42;48.91
9415;BME280;4746;35.664;139.738;2023-06-14T03:35:04;99454.91;;;33.46;48.12
9415;BME280;4746;35.664;139.738;2023-06-14T03:37:33;99449.28;;;33.49;47.99
9415;BME280;4746;35.664;139.738;2023-06-14T03:40:03;99438.78;;;33.57;46.95
9415;BME280;4746;35.664;139.738;2023-06-14T03:42:32;99442.78;;;33.61;46.56
9415;BME280;4746;35.664;139.738;2023-06-14T03:45:00;99435.50;;;33.63;46.43
9415;BME280;4746;35.664;139.738;2023-06-14T03:47:29;99439.88;;;33.72;46.23
9415;BME280;4746;35.664;139.738;2023-06-14T03:49:56;99441.81;;;33.80;46.15
9415;BME280;4746;35.664;139.738;2023-06-14T03:52:24;99429.41;;;33.88;45.32
9415;BME280;4746;35.664;139.738;2023-06-14T03:54:51;99429.31;;;33.97;45.00
9415;BME280;4746;35.664;139.738;2023-06-14T03:57:20;99425.94;;;34.13;45.24
9415;BME280;4746;35.664;139.738;2023-06-14T03:59:48;99427.22;;;34.26;44.98
9415;BME280;4746;35.664;139.738;2023-06-14T04:02:16;99422.53;;;34.46;44.42
9415;BME280;4746;35.664;139.738;2023-06-14T04:04:45;99410.16;;;34.62;43.28
9415;BME280;4746;35.664;139.738;2023-06-14T04:07:18;99403.97;;;34.95;43.04
9415;BME280;4746;35.664;139.738;2023-06-14T04:09:47;99405.22;;;35.16;42.35
9415;BME280;4746;35.664;139.738;2023-06-14T04:12:14;99406.91;;;35.33;41.65
9415;BME280;4746;35.664;139.738;2023-06-14T04:14:42;99402.59;;;35.40;40.00
9415;BME280;4746;35.664;139.738;2023-06-14T04:17:09;99403.81;;;35.53;39.75
9415;BME280;4746;35.664;139.738;2023-06-14T04:19:39;99397.31;;;35.56;39.22
9415;BME280;4746;35.664;139.738;2023-06-14T04:22:07;99390.97;;;35.49;39.50
9415;BME280;4746;35.664;139.738;2023-06-14T04:24:37;99395.94;;;35.44;39.83
9415;BME280;4746;35.664;139.738;2023-06-14T04:27:05;99398.59;;;35.44;40.04
9415;BME280;4746;35.664;139.738;2023-06-14T04:29:33;99395.25;;;35.42;40.04
9415;BME280;4746;35.664;139.738;2023-06-14T04:32:01;99398.75;;;35.34;39.90
9415;BME280;4746;35.664;139.738;2023-06-14T04:34:29;99423.06;;;35.24;39.85
9415;BME280;4746;35.664;139.738;2023-06-14T04:37:01;99417.09;;;34.96;39.62
9415;BME280;4746;35.664;139.738;2023-06-14T04:39:28;99413.56;;;34.80;39.37
9415;BME280;4746;35.664;139.738;2023-06-14T04:41:56;99412.69;;;34.71;39.54
9415;BME280;4746;35.664;139.738;2023-06-14T04:44:26;99401.88;;;34.73;38.67
9415;BME280;4746;35.664;139.738;2023-06-14T04:46:58;99397.38;;;34.73;38.61
9415;BME280;4746;35.664;139.738;2023-06-14T04:49:25;99393.38;;;34.69;39.37
9415;BME280;4746;35.664;139.738;2023-06-14T04:51:56;99399.69;;;34.68;39.66
9415;BME280;4746;35.664;139.738;2023-06-14T04:54:31;99398.03;;;34.67;39.55
9415;BME280;4746;35.664;139.738;2023-06-14T04:56:59;99386.84;;;34.64;40.22
9415;BME280;4746;35.664;139.738;2023-06-14T04:59:27;99381.34;;;34.58;40.26
9415;BME280;4746;35.664;139.738;2023-06-14T05:02:00;99389.63;;;34.55;40.96
9415;BME280;4746;35.664;139.738;2023-06-14T05:04:28;99390.22;;;34.41;40.58
9415;BME280;4746;35.664;139.738;2023-06-14T05:06:55;99396.59;;;34.22;41.24
9415;BME280;4746;35.664;139.738;2023-06-14T05:09:23;99403.16;;;34.10;41.21
9415;BME280;4746;35.664;139.738;2023-06-14T05:11:51;99410.47;;;33.91;41.52
9415;BME280;4746;35.664;139.738;2023-06-14T05:14:18;99402.53;;;33.74;41.89
9415;BME280;4746;35.664;139.738;2023-06-14T05:16:46;99403.41;;;33.57;42.35
9415;BME280;4746;35.664;139.738;2023-06-14T05:19:15;99405.72;;;33.42;42.95
9415;BME280;4746;35.664;139.738;2023-06-14T05:21:44;99395.38;;;33.39;42.89
9415;BME280;4746;35.664;139.738;2023-06-14T05:24:13;99389.78;;;33.42;42.73
9415;BME280;4746;35.664;139.738;2023-06-14T05:26:40;99385.22;;;33.52;42.84
9415;BME280;4746;35.664;139.738;2023-06-14T05:29:08;99392.66;;;33.66;41.98
9415;BME280;4746;35.664;139.738;2023-06-14T05:31:35;99381.19;;;33.66;41.72
9415;BME280;4746;35.664;139.738;2023-06-14T05:34:03;99381.66;;;33.61;42.32
9415;BME280;4746;35.664;139.738;2023-06-14T05:36:31;99383.53;;;33.51;42.83
9415;BME280;4746;35.664;139.738;2023-06-14T05:38:58;99373.06;;;33.32;43.53
9415;BME280;4746;35.664;139.738;2023-06-14T05:41:27;99368.88;;;33.13;44.54
9415;BME280;4746;35.664;139.738;2023-06-14T05:43:56;99364.03;;;32.99;44.98
9415;BME280;4746;35.664;139.738;2023-06-14T05:46:24;99367.19;;;32.85;45.02
9415;BME280;4746;35.664;139.738;2023-06-14T05:48:53;99367.03;;;32.69;45.04
9415;BME280;4746;35.664;139.738;2023-06-14T05:51:20;99348.88;;;32.64;45.34
9415;BME280;4746;35.664;139.738;2023-06-14T05:53:49;99356.41;;;32.69;44.87
9415;BME280;4746;35.664;139.738;2023-06-14T05:56:17;99355.53;;;32.78;44.85
9415;BME280;4746;35.664;139.738;2023-06-14T05:58:46;99357.44;;;32.85;44.67
9415;BME280;4746;35.664;139.738;2023-06-14T06:01:14;99360.91;;;32.86;45.11
9415;BME280;4746;35.664;139.738;2023-06-14T06:03:42;99360.25;;;32.84;45.24
9415;BME280;4746;35.664;139.738;2023-06-14T06:06:13;99364.75;;;32.74;44.98
9415;BME280;4746;35.664;139.738;2023-06-14T06:08:42;99364.81;;;32.64;44.80
9415;BME280;4746;35.664;139.738;2023-06-14T06:11:10;99370.16;;;32.55;45.22
9415;BME280;4746;35.664;139.738;2023-06-14T06:13:38;99367.38;;;32.47;44.93
9415;BME280;4746;35.664;139.738;2023-06-14T06:16:06;99373.28;;;32.41;44.83
9415;BME280;4746;35.664;139.738;2023-06-14T06:18:33;99376.53;;;32.35;45.22
9415;BME280;4746;35.664;139.738;2023-06-14T06:21:03;99367.59;;;32.36;45.13
9415;BME280;4746;35.664;139.738;2023-06-14T06:23:31;99379.44;;;32.32;45.08
9415;BME280;4746;35.664;139.738;2023-06-14T06:25:58;99369.84;;;32.31;44.70
9415;BME280;4746;35.664;139.738;2023-06-14T06:28:26;99380.56;;;32.30;44.56
9415;BME280;4746;35.664;139.738;2023-06-14T06:30:53;99384.75;;;32.32;44.58
9415;BME280;4746;35.664;139.738;2023-06-14T06:33:21;99375.28;;;32.30;44.22
9415;BME280;4746;35.664;139.738;2023-06-14T06:35:49;99391.63;;;32.25;44.66
9415;BME280;4746;35.664;139.738;2023-06-14T06:38:16;99394.56;;;32.22;44.86
9415;BME280;4746;35.664;139.738;2023-06-14T06:40:45;99396.94;;;32.25;45.43
9415;BME280;4746;35.664;139.738;2023-06-14T06:43:13;99399.13;;;32.30;45.15
9415;BME280;4746;35.664;139.738;2023-06-14T06:45:43;99381.94;;;32.43;44.83
9415;BME280;4746;35.664;139.738;2023-06-14T06:48:11;99385.97;;;32.47;44.70
9415;BME280;4746;35.664;139.738;2023-06-14T06:50:39;99374.06;;;32.51;45.07
9415;BME280;4746;35.664;139.738;2023-06-14T06:53:06;99368.91;;;32.59;44.45
9415;BME280;4746;35.664;139.738;2023-06-14T06:55:35;99365.34;;;32.68;44.28
9415;BME280;4746;35.664;139.738;2023-06-14T06:58:03;99364.38;;;32.69;44.09
9415;BME280;4746;35.664;139.738;2023-06-14T07:00:32;99355.88;;;32.65;43.29
9415;BME280;4746;35.664;139.738;2023-06-14T07:02:59;99360.25;;;32.57;43.12
9415;BME280;4746;35.664;139.738;2023-06-14T07:05:28;99354.28;;;32.45;43.04
9415;BME280;4746;35.664;139.738;2023-06-14T07:07:56;99359.75;;;32.35;43.58
9415;BME280;4746;35.664;139.738;2023-06-14T07:10:25;99355.03;;;32.29;43.19
9415;BME280;4746;35.664;139.738;2023-06-14T07:12:53;99347.06;;;32.29;42.83
9415;BME280;4746;35.664;139.738;2023-06-14T07:15:20;99343.97;;;32.33;43.09
9415;BME280;4746;35.664;139.738;2023-06-14T07:17:48;99336.72;;;32.35;43.03
9415;BME280;4746;35.664;139.738;2023-06-14T07:20:16;99333.38;;;32.33;42.94
9415;BME280;4746;35.664;139.738;2023-06-14T07:22:44;99333.38;;;32.33;42.42
9415;BME280;4746;35.664;139.738;2023-06-14T07:25:12;99327.47;;;32.39;42.76
9415;BME280;4746;35.664;139.738;2023-06-14T07:27:42;99316.59;;;32.42;42.70
9415;BME280;4746;35.664;139.738;2023-06-14T07:30:11;99322.44;;;32.45;42.39
9415;BME280;4746;35.664;139.738;2023-06-14T07:32:39;99325.75;;;32.47;42.86
9415;BME280;4746;35.664;139.738;2023-06-14T07:35:07;99317.69;;;32.49;42.84
9415;BME280;4746;35.664;139.738;2023-06-14T07:37:34;99315.03;;;32.49;42.81
9415;BME280;4746;35.664;139.738;2023-06-14T07:40:03;99318.25;;;32.43;43.21
9415;BME280;4746;35.664;139.738;2023-06-14T07:42:36;99315.78;;;32.32;43.00
9415;BME280;4746;35.664;139.738;2023-06-14T07:45:04;99312.88;;;32.26;43.58
9415;BME280;4746;35.664;139.738;2023-06-14T07:47:37;99301.19;;;32.19;44.02
9415;BME280;4746;35.664;139.738;2023-06-14T07:50:05;99305.94;;;32.15;43.82
9415;BME280;4746;35.664;139.738;2023-06-14T07:52:33;99319.13;;;32.07;43.86
9415;BME280;4746;35.664;139.738;2023-06-14T07:55:01;99321.22;;;32.04;44.67
9415;BME280;4746;35.664;139.738;2023-06-14T07:57:28;99324.00;;;32.02;45.13
9415;BME280;4746;35.664;139.738;2023-06-14T07:59:56;99309.50;;;32.06;44.76
9415;BME280;4746;35.664;139.738;2023-06-14T08:02:24;99316.16;;;32.10;44.86
9415;BME280;4746;35.664;139.738;2023-06-14T08:04:53;99311.84;;;32.09;44.51
9415;BME280;4746;35.664;139.738;2023-06-14T08:07:21;99313.13;;;32.05;44.56
9415;BME280;4746;35.664;139.738;2023-06-14T08:09:48;99318.72;;;31.93;44.89
9415;BME280;4746;35.664;139.738;2023-06-14T08:12:16;99329.03;;;31.86;45.02
9415;BME280;4746;35.664;139.738;2023-06-14T08:14:44;99336.75;;;31.80;44.75
9415;BME280;4746;35.664;139.738;2023-06-14T08:17:11;99330.88;;;31.76;44.98
9415;BME280;4746;35.664;139.738;2023-06-14T08:19:39;99339.81;;;31.75;45.38
9415;BME280;4746;35.664;139.738;2023-06-14T08:22:07;99339.97;;;31.74;45.24
9415;BME280;4746;35.664;139.738;2023-06-14T08:24:38;99337.72;;;31.79;44.90
9415;BME280;4746;35.664;139.738;2023-06-14T08:27:09;99334.50;;;31.85;44.87
9415;BME280;4746;35.664;139.738;2023-06-14T08:29:36;99334.31;;;32.05;44.57
9415;BME280;4746;35.664;139.738;2023-06-14T08:32:07;99322.66;;;32.52;44.38
9415;BME280;4746;35.664;139.738;2023-06-14T08:34:35;99319.53;;;33.62;42.62
9415;BME280;4746;35.664;139.738;2023-06-14T08:37:02;99313.13;;;33.98;42.00
9415;BME280;4746;35.664;139.738;2023-06-14T08:39:29;99304.84;;;34.75;40.55
9415;BME280;4746;35.664;139.738;2023-06-14T08:41:57;99314.13;;;35.13;40.12
9415;BME280;4746;35.664;139.738;2023-06-14T08:44:25;99309.91;;;34.94;39.61
9415;BME280;4746;35.664;139.738;2023-06-14T08:46:56;99308.66;;;34.65;40.25
9415;BME280;4746;35.664;139.738;2023-06-14T08:49:26;99324.84;;;34.46;40.29
9415;BME280;4746;35.664;139.738;2023-06-14T08:52:00;99323.34;;;34.36;40.92
9415;BME280;4746;35.664;139.738;2023-06-14T08:54:29;99332.44;;;34.25;41.24
9415;BME280;4746;35.664;139.738;2023-06-14T08:57:01;99336.81;;;34.09;41.30
9415;BME280;4746;35.664;139.738;2023-06-14T08:59:31;99336.69;;;33.93;41.94
9415;BME280;4746;35.664;139.738;2023-06-14T09:02:06;99349.81;;;33.69;42.35
9415;BME280;4746;35.664;139.738;2023-06-14T09:04:36;99344.50;;;33.34;43.27
9415;BME280;4746;35.664;139.738;2023-06-14T09:07:05;99357.66;;;32.92;44.53
9415;BME280;4746;35.664;139.738;2023-06-14T09:09:33;99370.59;;;32.50;45.31
9415;BME280;4746;35.664;139.738;2023-06-14T09:12:11;99371.97;;;32.18;45.41
9415;BME280;4746;35.664;139.738;2023-06-14T09:14:39;99368.97;;;31.75;46.32
9415;BME280;4746;35.664;139.738;2023-06-14T09:17:15;99370.78;;;31.47;46.67
9415;BME280;4746;35.664;139.738;2023-06-14T09:19:43;99364.78;;;31.16;47.69
9415;BME280;4746;35.664;139.738;2023-06-14T09:22:17;99363.34;;;31.03;48.33
9415;BME280;4746;35.664;139.738;2023-06-14T09:24:45;99364.84;;;30.87;48.38
9415;BME280;4746;35.664;139.738;2023-06-14T09:27:16;99369.41;;;30.75;48.70
9415;BME280;4746;35.664;139.738;2023-06-14T09:29:43;99375.88;;;30.52;49.44
9415;BME280;4746;35.664;139.738;2023-06-14T09:32:11;99383.16;;;30.39;50.28
9415;BME280;4746;35.664;139.738;2023-06-14T09:34:39;99383.53;;;30.26;50.60
9415;BME280;4746;35.664;139.738;2023-06-14T09:37:06;99383.88;;;30.12;51.22
9415;BME280;4746;35.664;139.738;2023-06-14T09:39:34;99391.88;;;30.01;51.73
9415;BME280;4746;35.664;139.738;2023-06-14T09:42:01;99403.81;;;29.95;51.86
9415;BME280;4746;35.664;139.738;2023-06-14T09:44:49;99411.91;;;29.83;52.77
9415;BME280;4746;35.664;139.738;2023-06-14T09:47:17;99427.22;;;29.68;53.32
9415;BME280;4746;35.664;139.738;2023-06-14T09:49:51;99422.31;;;29.64;53.05
9415;BME280;4746;35.664;139.738;2023-06-14T09:52:22;99424.38;;;29.60;53.36
9415;BME280;4746;35.664;139.738;2023-06-14T09:54:50;99431.97;;;29.54;53.73
9415;BME280;4746;35.664;139.738;2023-06-14T09:57:23;99424.81;;;29.45;53.80
9415;BME280;4746;35.664;139.738;2023-06-14T09:59:59;99416.41;;;29.40;53.91
9415;BME280;4746;35.664;139.738;2023-06-14T10:02:39;99421.09;;;29.37;54.21
9415;BME280;4746;35.664;139.738;2023-06-14T10:05:17;99423.38;;;29.30;54.24
9415;BME280;4746;35.664;139.738;2023-06-14T10:08:10;99429.63;;;29.29;54.68
9415;BME280;4746;35.664;139.738;2023-06-14T10:10:40;99441.06;;;29.19;54.97
9415;BME280;4746;35.664;139.738;2023-06-14T10:13:08;99432.31;;;29.18;54.75
9415;BME280;4746;35.664;139.738;2023-06-14T10:22:14;99419.34;;;29.26;55.05
9415;BME280;4746;35.664;139.738;2023-06-14T10:24:45;99407.94;;;29.15;55.04
9415;BME280;4746;35.664;139.738;2023-06-14T10:27:15;99401.13;;;29.12;55.67
9415;BME280;4746;35.664;139.738;2023-06-14T10:32:25;99389.75;;;29.12;55.38
9415;BME280;4746;35.664;139.738;2023-06-14T10:35:05;99384.34;;;29.13;55.54
9415;BME280;4746;35.664;139.738;2023-06-14T10:37:34;99380.28;;;29.09;55.87
9415;BME280;4746;35.664;139.738;2023-06-14T10:40:03;99390.25;;;29.06;55.96
9415;BME280;4746;35.664;139.738;2023-06-14T10:42:33;99384.09;;;29.05;56.27
9415;BME280;4746;35.664;139.738;2023-06-14T10:45:02;99384.09;;;29.05;56.40
9415;BME280;4746;35.664;139.738;2023-06-14T10:47:36;99387.69;;;29.04;56.29
9415;BME280;4746;35.664;139.738;2023-06-14T10:50:09;99384.59;;;28.99;56.01
9415;BME280;4746;35.664;139.738;2023-06-14T10:52:43;99398.03;;;29.07;56.43
9415;BME280;4746;35.664;139.738;2023-06-14T10:55:23;99394.16;;;29.11;55.61
9415;BME280;4746;35.664;139.738;2023-06-14T10:57:54;99396.13;;;29.09;55.79
9415;BME280;4746;35.664;139.738;2023-06-14T11:00:37;99400.16;;;29.13;55.73
9415;BME280;4746;35.664;139.738;2023-06-14T11:05:56;99423.78;;;29.15;56.15
9415;BME280;4746;35.664;139.738;2023-06-14T11:08:40;99424.97;;;29.22;56.07
9415;BME280;4746;35.664;139.738;2023-06-14T11:11:14;99431.84;;;29.13;55.78
9415;BME280;4746;35.664;139.738;2023-06-14T11:13:45;99429.44;;;29.10;56.04
9415;BME280;4746;35.664;139.738;2023-06-14T11:16:18;99430.28;;;29.11;56.04
9415;BME280;4746;35.664;139.738;2023-06-14T11:18:49;99439.53;;;29.05;56.31
9415;BME280;4746;35.664;139.738;2023-06-14T11:21:19;99434.16;;;29.07;56.16
9415;BME280;4746;35.664;139.738;2023-06-14T11:23:54;99423.59;;;29.07;56.23
9415;BME280;4746;35.664;139.738;2023-06-14T11:26:31;99430.91;;;29.03;56.46
9415;BME280;4746;35.664;139.738;2023-06-14T11:29:01;99442.41;;;29.02;56.24
9415;BME280;4746;35.664;139.738;2023-06-14T11:31:29;99443.50;;;29.00;56.22
9415;BME280;4746;35.664;139.738;2023-06-14T11:33:59;99441.06;;;29.08;55.93
9415;BME280;4746;35.664;139.738;2023-06-14T11:36:33;99454.38;;;29.17;55.44
9415;BME280;4746;35.664;139.738;2023-06-14T11:39:06;99462.75;;;29.22;55.38
9415;BME280;4746;35.664;139.738;2023-06-14T11:41:44;99454.59;;;29.25;55.19
9415;BME280;4746;35.664;139.738;2023-06-14T11:44:12;99440.00;;;29.21;55.18
9415;BME280;4746;35.664;139.738;2023-06-14T11:46:40;99424.84;;;29.23;55.69
9415;BME280;4746;35.664;139.738;2023-06-14T11:49:08;99433.97;;;29.19;55.16
9415;BME280;4746;35.664;139.738;2023-06-14T11:51:39;99440.94;;;29.20;55.19
9415;BME280;4746;35.664;139.738;2023-06-14T11:54:07;99450.53;;;29.21;55.63
9415;BME280;4746;35.664;139.738;2023-06-14T11:56:36;99458.19;;;29.24;55.22
9415;BME280;4746;35.664;139.738;2023-06-14T11:59:06;99452.09;;;29.24;55.33
9415;BME280;4746;35.664;139.738;2023-06-14T12:01:37;99450.16;;;29.26;55.46
9415;BME280;4746;35.664;139.738;2023-06-14T12:04:08;99459.88;;;29.25;55.65
9415;BME280;4746;35.664;139.738;2023-06-14T12:06:36;99457.38;;;29.24;55.68
9415;BME280;4746;35.664;139.738;2023-06-14T12:09:07;99460.00;;;29.24;55.46
9415;BME280;4746;35.664;139.738;2023-06-14T12:11:40;99463.03;;;29.19;55.45
9415;BME280;4746;35.664;139.738;2023-06-14T12:14:09;99472.63;;;29.20;55.77
9415;BME280;4746;35.664;139.738;2023-06-14T12:16:40;99461.59;;;29.15;55.22
9415;BME280;4746;35.664;139.738;2023-06-14T12:19:16;99465.19;;;29.14;55.51
9415;BME280;4746;35.664;139.738;2023-06-14T12:21:47;99460.88;;;29.13;55.97
9415;BME280;4746;35.664;139.738;2023-06-14T12:24:19;99461.38;;;29.07;55.38
9415;BME280;4746;35.664;139.738;2023-06-14T12:26:46;99461.59;;;29.04;55.84
9415;BME280;4746;35.664;139.738;2023-06-14T12:29:14;99453.47;;;28.96;55.93
9415;BME280;4746;35.664;139.738;2023-06-14T12:31:42;99458.97;;;28.93;55.65
9415;BME280;4746;35.664;139.738;2023-06-14T12:34:09;99457.53;;;28.89;55.74
9415;BME280;4746;35.664;139.738;2023-06-14T12:36:37;99474.34;;;28.88;56.24
9415;BME280;4746;35.664;139.738;2023-06-14T12:39:12;99478.91;;;28.86;55.53
9415;BME280;4746;35.664;139.738;2023-06-14T12:41:43;99489.09;;;28.80;55.95
9415;BME280;4746;35.664;139.738;2023-06-14T12:44:12;99491.13;;;28.77;55.86
9415;BME280;4746;35.664;139.738;2023-06-14T12:46:46;99492.03;;;28.76;56.32
9415;BME280;4746;35.664;139.738;2023-06-14T12:49:13;99494.47;;;28.68;56.68
9415;BME280;4746;35.664;139.738;2023-06-14T12:51:42;99503.19;;;28.68;56.55
9415;BME280;4746;35.664;139.738;2023-06-14T12:54:09;99496.63;;;28.63;56.64
9415;BME280;4746;35.664;139.738;2023-06-14T12:56:37;99482.91;;;28.58;56.78
9415;BME280;4746;35.664;139.738;2023-06-14T12:59:04;99466.63;;;28.53;56.37
9415;BME280;4746;35.664;139.738;2023-06-14T13:01:32;99458.22;;;28.48;56.57
9415;BME280;4746;35.664;139.738;2023-06-14T13:04:00;99455.59;;;28.48;56.88
9415;BME280;4746;35.664;139.738;2023-06-14T13:06:27;99471.06;;;28.41;57.22
9415;BME280;4746;35.664;139.738;2023-06-14T13:08:56;99463.75;;;28.34;57.62
9415;BME280;4746;35.664;139.738;2023-06-14T13:11:26;99459.16;;;28.25;58.09
9415;BME280;4746;35.664;139.738;2023-06-14T13:13:53;99455.31;;;28.18;58.62
9415;BME280;4746;35.664;139.738;2023-06-14T13:16:21;99454.19;;;28.09;59.01
9415;BME280;4746;35.664;139.738;2023-06-14T13:18:49;99451.91;;;28.05;59.30
9415;BME280;4746;35.664;139.738;2023-06-14T13:21:16;99455.50;;;28.04;59.61
9415;BME280;4746;35.664;139.738;2023-06-14T13:23:44;99453.81;;;28.03;59.94
9415;BME280;4746;35.664;139.738;2023-06-14T13:26:11;99450.25;;;28.04;59.75
9415;BME280;4746;35.664;139.738;2023-06-14T13:28:44;99438.03;;;28.03;60.04
9415;BME280;4746;35.664;139.738;2023-06-14T13:31:13;99430.13;;;28.03;59.83